createdAt,value
2022-07-31T00:00:46.469Z,20.10
2022-07-31T00:03:14.579Z,20.00
2022-07-31T00:05:42.788Z,20.00
2022-07-31T00:08:11.214Z,20.00
2022-07-31T00:10:39.757Z,20.00
2022-07-31T00:13:07.994Z,20.00
2022-07-31T00:15:39.909Z,20.00
2022-07-31T00:18:08.814Z,20.00
2022-07-31T00:20:37.112Z,19.90
2022-07-31T00:23:05.254Z,20.00
2022-07-31T00:25:33.552Z,20.00
2022-07-31T00:28:01.633Z,19.90
2022-07-31T00:30:29.775Z,19.90
2022-07-31T00:32:59.392Z,19.90
2022-07-31T00:35:27.400Z,19.90
2022-07-31T00:38:18.241Z,19.80
2022-07-31T00:40:48.121Z,19.80
2022-07-31T00:43:16.605Z,19.80
2022-07-31T00:45:44.967Z,19.80
2022-07-31T00:48:19.223Z,19.80
2022-07-31T00:50:48.591Z,19.80
2022-07-31T00:53:16.587Z,19.70
2022-07-31T00:55:51.770Z,19.70
2022-07-31T00:58:20.681Z,19.60
2022-07-31T01:00:49.037Z,19.60
2022-07-31T01:03:19.654Z,19.60
2022-07-31T01:05:47.806Z,19.60
2022-07-31T01:08:16.559Z,19.50
2022-07-31T01:10:51.889Z,19.50
2022-07-31T01:13:28.828Z,19.40
2022-07-31T01:15:58.566Z,19.40
2022-07-31T01:18:31.766Z,19.40
2022-07-31T01:21:04.864Z,19.50
2022-07-31T01:23:51.082Z,19.40
2022-07-31T01:26:46.987Z,19.40
2022-07-31T01:29:22.169Z,19.40
2022-07-31T01:31:58.205Z,19.40
2022-07-31T01:34:32.713Z,19.40
2022-07-31T01:37:14.970Z,19.40
2022-07-31T01:39:46.915Z,19.40
2022-07-31T01:42:19.574Z,19.40
2022-07-31T01:44:54.530Z,19.40
2022-07-31T01:47:24.184Z,19.40
2022-07-31T01:49:54.167Z,19.40
2022-07-31T01:52:23.672Z,19.30
2022-07-31T01:54:52.782Z,19.30
2022-07-31T01:57:23.291Z,19.30
2022-07-31T01:59:55.306Z,19.30
2022-07-31T02:02:24.318Z,19.20
2022-07-31T02:04:53.352Z,19.20
2022-07-31T02:07:22.231Z,19.20
2022-07-31T02:09:58.193Z,19.20
2022-07-31T02:12:31.907Z,19.10
2022-07-31T02:15:04.168Z,19.10
2022-07-31T02:17:32.670Z,19.10
2022-07-31T02:20:02.876Z,19.10
2022-07-31T02:22:31.057Z,19.10
2022-07-31T02:24:59.672Z,19.10
2022-07-31T02:27:55.478Z,19.10
2022-07-31T02:30:19.680Z,19.00
2022-07-31T02:32:48.674Z,19.00
2022-07-31T02:35:18.611Z,19.00
2022-07-31T02:37:47.946Z,19.00
2022-07-31T02:40:17.277Z,18.90
2022-07-31T02:42:47.446Z,18.90
2022-07-31T02:45:16.648Z,18.90
2022-07-31T02:47:48.431Z,18.90
2022-07-31T02:50:20.285Z,18.80
2022-07-31T02:52:48.869Z,18.80
2022-07-31T02:55:18.432Z,18.80
2022-07-31T02:57:48.193Z,18.80
2022-07-31T03:00:23.081Z,18.80
2022-07-31T03:02:53.096Z,18.80
2022-07-31T03:05:21.440Z,18.70
2022-07-31T03:07:49.601Z,18.70
2022-07-31T03:10:17.962Z,18.60
2022-07-31T03:12:48.908Z,18.60
2022-07-31T03:15:19.294Z,18.60
2022-07-31T03:17:48.568Z,18.50
2022-07-31T03:20:18.966Z,18.50
2022-07-31T03:22:47.373Z,18.50
2022-07-31T03:25:20.159Z,18.50
2022-07-31T03:27:55.885Z,18.40
2022-07-31T03:30:26.024Z,18.40
2022-07-31T03:32:54.385Z,18.40
2022-07-31T03:35:24.324Z,18.30
2022-07-31T03:37:53.159Z,18.30
2022-07-31T03:40:21.721Z,18.30
2022-07-31T03:42:50.816Z,18.40
2022-07-31T03:45:20.490Z,18.30
2022-07-31T03:47:48.890Z,18.40
2022-07-31T03:50:18.412Z,18.40
2022-07-31T03:52:48.814Z,18.40
2022-07-31T03:55:17.635Z,18.40
2022-07-31T03:57:47.680Z,18.40
2022-07-31T04:00:20.406Z,18.40
2022-07-31T04:02:48.415Z,18.40
2022-07-31T04:05:16.498Z,18.50
2022-07-31T04:07:44.792Z,18.40
2022-07-31T04:10:14.340Z,18.50
2022-07-31T04:12:42.422Z,18.40
2022-07-31T04:15:11.195Z,18.40
2022-07-31T04:17:39.305Z,18.40
2022-07-31T04:20:09.168Z,18.40
2022-07-31T04:22:37.311Z,18.40
2022-07-31T04:25:08.353Z,18.50
2022-07-31T04:27:48.450Z,18.50
2022-07-31T04:30:17.635Z,18.50
2022-07-31T04:32:45.894Z,18.50
2022-07-31T04:35:14.321Z,18.50
2022-07-31T04:37:48.006Z,18.50
2022-07-31T04:40:17.054Z,18.50
2022-07-31T04:42:46.531Z,18.50
2022-07-31T04:45:14.617Z,18.50
2022-07-31T04:47:42.991Z,18.60
2022-07-31T04:50:11.428Z,18.50
2022-07-31T04:52:39.475Z,18.60
2022-07-31T04:55:08.222Z,18.60
2022-07-31T04:57:36.216Z,18.60
2022-07-31T05:00:06.739Z,18.60
2022-07-31T05:02:34.887Z,18.60
2022-07-31T05:05:03.069Z,18.60
2022-07-31T05:07:31.264Z,18.60
2022-07-31T05:09:59.667Z,18.60
2022-07-31T05:12:27.809Z,18.60
2022-07-31T05:14:56.114Z,18.60
2022-07-31T05:17:25.629Z,18.60
2022-07-31T05:19:53.650Z,18.60
2022-07-31T05:22:21.696Z,18.60
2022-07-31T05:24:49.937Z,18.60
2022-07-31T05:27:17.959Z,18.60
2022-07-31T05:29:45.990Z,18.70
2022-07-31T05:32:14.487Z,18.70
2022-07-31T05:34:44.102Z,18.70
2022-07-31T05:37:12.084Z,18.70
2022-07-31T05:39:40.948Z,18.80
2022-07-31T05:42:09.170Z,18.70
2022-07-31T05:44:37.688Z,18.80
2022-07-31T05:47:08.674Z,18.80
2022-07-31T05:49:37.035Z,18.90
2022-07-31T05:52:07.096Z,18.90
2022-07-31T05:54:35.414Z,18.90
2022-07-31T05:57:03.509Z,18.90
2022-07-31T05:59:32.843Z,19.00
2022-07-31T06:02:01.206Z,19.00
2022-07-31T06:04:29.866Z,19.00
2022-07-31T06:06:57.904Z,19.00
2022-07-31T06:09:27.316Z,19.00
2022-07-31T06:11:55.409Z,19.00
2022-07-31T06:14:23.503Z,19.10
2022-07-31T06:16:53.197Z,19.10
2022-07-31T06:19:24.264Z,19.10
2022-07-31T06:21:54.016Z,19.10
2022-07-31T06:24:22.327Z,19.10
2022-07-31T06:26:51.687Z,19.10
2022-07-31T06:29:20.281Z,19.20
2022-07-31T06:32:08.877Z,19.20
2022-07-31T06:34:37.674Z,19.20
2022-07-31T06:37:05.926Z,19.30
2022-07-31T06:39:55.468Z,19.30
2022-07-31T06:42:24.318Z,19.30
2022-07-31T06:44:52.939Z,19.30
2022-07-31T06:47:22.579Z,19.30
2022-07-31T06:49:50.660Z,19.40
2022-07-31T06:52:18.929Z,19.50
2022-07-31T06:54:47.959Z,19.50
2022-07-31T06:57:16.053Z,19.60
2022-07-31T06:59:45.730Z,19.60
2022-07-31T07:02:14.477Z,19.70
2022-07-31T07:04:56.199Z,19.70
2022-07-31T07:07:31.553Z,19.70
2022-07-31T07:10:00.514Z,19.80
2022-07-31T07:12:28.701Z,19.80
2022-07-31T07:14:58.216Z,19.90
2022-07-31T07:17:29.308Z,19.90
2022-07-31T07:19:58.120Z,20.00
2022-07-31T07:22:30.108Z,20.00
2022-07-31T07:25:01.074Z,20.10
2022-07-31T07:27:29.229Z,20.10
2022-07-31T07:30:00.240Z,20.20
2022-07-31T07:32:28.328Z,20.40
2022-07-31T07:34:59.691Z,20.50
2022-07-31T07:37:29.705Z,20.60
2022-07-31T07:39:57.918Z,20.70
2022-07-31T07:42:32.369Z,20.70
2022-07-31T07:45:02.257Z,20.80
2022-07-31T07:47:53.969Z,20.80
2022-07-31T07:50:26.958Z,20.70
2022-07-31T07:52:57.323Z,20.80
2022-07-31T07:55:26.239Z,20.90
2022-07-31T07:57:54.782Z,21.00
2022-07-31T08:00:25.997Z,20.90
2022-07-31T08:03:47.617Z,21.00
2022-07-31T08:05:42.508Z,21.10
2022-07-31T08:08:10.820Z,21.30
2022-07-31T08:10:40.415Z,21.40
2022-07-31T08:13:08.443Z,21.50
2022-07-31T08:15:37.913Z,21.70
2022-07-31T08:18:06.503Z,21.80
2022-07-31T08:20:34.513Z,21.90
2022-07-31T08:23:02.616Z,21.80
2022-07-31T08:25:32.036Z,21.80
2022-07-31T08:28:00.432Z,21.80
2022-07-31T08:30:31.149Z,21.80
2022-07-31T08:33:01.098Z,21.80
2022-07-31T08:35:29.440Z,21.80
2022-07-31T08:38:03.617Z,21.80
2022-07-31T08:40:34.790Z,21.80
2022-07-31T08:43:59.569Z,21.80
2022-07-31T08:46:02.573Z,21.70
2022-07-31T08:48:34.235Z,21.80
2022-07-31T08:51:04.437Z,21.80
2022-07-31T08:53:33.625Z,21.90
2022-07-31T08:56:01.974Z,21.90
2022-07-31T08:58:30.074Z,22.00
2022-07-31T09:00:59.023Z,22.00
2022-07-31T09:03:27.171Z,22.10
2022-07-31T09:05:56.537Z,22.10
2022-07-31T09:08:25.666Z,22.20
2022-07-31T09:11:05.816Z,22.30
2022-07-31T09:13:35.470Z,22.40
2022-07-31T09:16:04.738Z,22.50
2022-07-31T09:18:33.038Z,22.50
2022-07-31T09:21:04.660Z,22.60
2022-07-31T09:23:33.429Z,22.50
2022-07-31T09:26:04.895Z,22.50
2022-07-31T09:28:34.705Z,22.50
2022-07-31T09:31:03.292Z,22.70
2022-07-31T09:33:31.987Z,22.80
2022-07-31T09:36:02.200Z,23.00
2022-07-31T09:38:36.193Z,23.30
2022-07-31T09:41:56.158Z,23.50
2022-07-31T09:44:02.788Z,23.50
2022-07-31T09:46:43.317Z,23.50
2022-07-31T09:49:12.368Z,23.30
2022-07-31T09:51:43.089Z,23.30
2022-07-31T09:54:22.567Z,23.50
2022-07-31T09:56:50.857Z,23.60
2022-07-31T09:59:19.234Z,23.70
2022-07-31T10:01:49.640Z,23.60
2022-07-31T10:04:19.223Z,23.60
2022-07-31T10:06:50.677Z,23.80
2022-07-31T10:09:21.278Z,24.00
2022-07-31T10:11:52.485Z,24.00
2022-07-31T10:14:32.121Z,24.00
2022-07-31T10:17:04.557Z,24.00
2022-07-31T10:19:36.219Z,24.00
2022-07-31T10:22:07.534Z,23.90
2022-07-31T10:24:41.778Z,23.90
2022-07-31T10:27:12.597Z,24.30
2022-07-31T10:29:41.621Z,24.60
2022-07-31T10:32:10.401Z,24.80
2022-07-31T10:34:39.201Z,25.00
2022-07-31T10:37:14.591Z,24.90
2022-07-31T10:39:48.532Z,24.90
2022-07-31T10:42:28.192Z,24.70
2022-07-31T10:45:04.164Z,24.50
2022-07-31T10:47:32.450Z,24.40
2022-07-31T10:50:00.566Z,24.20
2022-07-31T10:52:31.370Z,24.00
2022-07-31T10:55:01.840Z,24.20
2022-07-31T10:57:31.704Z,24.30
2022-07-31T11:00:11.939Z,24.40
2022-07-31T11:02:40.234Z,24.50
2022-07-31T11:05:10.544Z,24.70
2022-07-31T11:07:40.527Z,24.70
2022-07-31T11:10:13.742Z,24.80
2022-07-31T11:12:42.206Z,24.90
2022-07-31T11:15:21.087Z,25.00
2022-07-31T11:18:21.160Z,25.00
2022-07-31T11:20:38.132Z,25.00
2022-07-31T11:23:10.065Z,25.00
2022-07-31T11:25:38.805Z,25.00
2022-07-31T11:28:14.999Z,25.20
2022-07-31T11:30:53.915Z,25.50
2022-07-31T11:33:40.291Z,25.60
2022-07-31T11:36:12.829Z,25.50
2022-07-31T11:38:46.071Z,25.40
2022-07-31T11:41:15.421Z,25.30
2022-07-31T11:43:47.598Z,25.30
2022-07-31T11:46:20.328Z,25.30
2022-07-31T11:48:48.993Z,25.20
2022-07-31T11:51:21.713Z,25.10
2022-07-31T11:53:56.839Z,25.00
2022-07-31T11:56:28.284Z,25.10
2022-07-31T11:58:58.553Z,25.10
2022-07-31T12:01:29.063Z,25.10
2022-07-31T12:04:08.663Z,25.00
2022-07-31T12:06:37.472Z,25.20
2022-07-31T12:09:07.344Z,25.40
2022-07-31T12:11:56.044Z,25.30
2022-07-31T12:14:32.421Z,25.10
2022-07-31T12:17:00.778Z,25.10
2022-07-31T12:19:30.368Z,25.20
2022-07-31T12:22:14.717Z,25.30
2022-07-31T12:24:44.898Z,25.20
2022-07-31T12:27:16.112Z,25.10
2022-07-31T12:29:44.362Z,24.80
2022-07-31T12:32:12.786Z,24.70
2022-07-31T12:34:42.362Z,24.90
2022-07-31T12:37:12.929Z,25.20
2022-07-31T12:40:00.913Z,25.60
2022-07-31T12:42:34.038Z,25.70
2022-07-31T12:45:19.675Z,25.70
2022-07-31T12:47:52.195Z,25.90
2022-07-31T12:50:21.546Z,25.90
2022-07-31T12:52:49.888Z,25.70
2022-07-31T12:55:19.816Z,25.50
2022-07-31T12:57:51.203Z,25.50
2022-07-31T13:00:22.701Z,25.50
2022-07-31T13:02:51.262Z,25.50
2022-07-31T13:05:19.384Z,25.60
2022-07-31T13:07:47.588Z,25.50
2022-07-31T13:10:23.787Z,25.40
2022-07-31T13:12:53.829Z,25.40
2022-07-31T13:15:29.763Z,25.40
2022-07-31T13:17:58.778Z,25.40
2022-07-31T13:20:27.315Z,25.50
2022-07-31T13:22:55.428Z,25.70
2022-07-31T13:25:23.455Z,25.70
2022-07-31T13:27:53.437Z,25.80
2022-07-31T13:30:21.444Z,25.60
2022-07-31T13:32:49.522Z,25.50
2022-07-31T13:35:28.102Z,25.50
2022-07-31T13:37:57.685Z,25.40
2022-07-31T13:40:40.084Z,25.30
2022-07-31T13:43:09.540Z,25.40
2022-07-31T13:45:38.233Z,25.50
2022-07-31T13:48:09.555Z,25.70
2022-07-31T13:50:39.567Z,25.70
2022-07-31T13:53:07.754Z,25.60
2022-07-31T13:55:35.928Z,25.60
2022-07-31T13:58:04.164Z,25.70
2022-07-31T14:00:33.660Z,25.70
2022-07-31T14:03:01.933Z,25.70
2022-07-31T14:05:30.106Z,25.60
2022-07-31T14:08:32.741Z,25.30
2022-07-31T14:10:56.053Z,25.20
2022-07-31T14:13:25.108Z,25.10
2022-07-31T14:15:54.892Z,25.20
2022-07-31T14:18:23.508Z,25.30
2022-07-31T14:20:52.271Z,25.50
2022-07-31T14:23:20.540Z,25.60
2022-07-31T14:25:56.144Z,25.70
2022-07-31T14:28:24.836Z,25.90
2022-07-31T14:30:54.402Z,25.90
2022-07-31T14:33:22.919Z,25.90
2022-07-31T14:35:54.566Z,25.80
2022-07-31T14:38:27.260Z,25.80
2022-07-31T14:40:55.969Z,25.80
2022-07-31T14:43:24.097Z,25.50
2022-07-31T14:45:52.419Z,25.50
2022-07-31T14:48:22.082Z,25.50
2022-07-31T14:50:50.227Z,25.40
2022-07-31T14:53:18.302Z,25.40
2022-07-31T14:55:46.487Z,25.50
2022-07-31T14:58:14.537Z,25.40
2022-07-31T15:00:42.651Z,25.10
2022-07-31T15:03:10.991Z,24.80
2022-07-31T15:06:49.342Z,24.90
2022-07-31T15:08:30.400Z,24.90
2022-07-31T15:10:58.723Z,24.90
2022-07-31T15:13:26.690Z,24.60
2022-07-31T15:15:54.898Z,24.40
2022-07-31T15:18:24.588Z,24.40
2022-07-31T15:20:55.375Z,24.30
2022-07-31T15:23:23.669Z,24.20
2022-07-31T15:25:51.825Z,24.20
2022-07-31T15:28:20.080Z,24.40
2022-07-31T15:30:48.105Z,24.50
2022-07-31T15:33:16.835Z,24.40
2022-07-31T15:35:47.989Z,24.10
2022-07-31T15:38:17.605Z,24.00
2022-07-31T15:40:47.004Z,24.00
2022-07-31T15:43:15.173Z,24.10
2022-07-31T15:45:43.637Z,24.10
2022-07-31T15:48:11.703Z,24.10
2022-07-31T15:50:39.860Z,23.90
2022-07-31T15:53:08.115Z,23.80
2022-07-31T15:55:37.571Z,23.80
2022-07-31T15:58:05.615Z,23.80
2022-07-31T16:00:33.677Z,23.80
2022-07-31T16:03:01.855Z,23.70
2022-07-31T16:05:36.142Z,23.50
2022-07-31T16:08:30.685Z,23.50
2022-07-31T16:10:57.678Z,23.60
2022-07-31T16:13:26.362Z,23.70
2022-07-31T16:15:54.357Z,23.70
2022-07-31T16:18:22.499Z,23.60
2022-07-31T16:20:50.709Z,23.60
2022-07-31T16:23:18.798Z,23.70
2022-07-31T16:25:47.298Z,23.50
2022-07-31T16:28:16.913Z,23.40
2022-07-31T16:30:45.785Z,23.30
2022-07-31T16:33:14.161Z,23.30
2022-07-31T16:35:42.271Z,23.40
2022-07-31T16:38:10.344Z,23.30
2022-07-31T16:40:38.617Z,23.30
2022-07-31T16:43:50.247Z,23.30
2022-07-31T16:45:57.860Z,23.40
2022-07-31T16:48:26.320Z,23.40
2022-07-31T16:50:55.137Z,23.30
2022-07-31T16:54:11.278Z,23.30
2022-07-31T16:56:12.851Z,23.20
2022-07-31T16:58:41.228Z,23.10
2022-07-31T17:02:00.227Z,22.90
2022-07-31T17:04:03.161Z,22.70
2022-07-31T17:06:36.611Z,22.50
2022-07-31T17:09:15.864Z,22.30
2022-07-31T17:11:47.225Z,21.90
2022-07-31T17:14:15.593Z,21.60
2022-07-31T17:16:47.916Z,21.50
2022-07-31T17:19:36.014Z,21.40
2022-07-31T17:22:04.646Z,21.50
2022-07-31T17:24:32.985Z,21.40
2022-07-31T17:27:01.017Z,21.40
2022-07-31T17:29:29.094Z,21.40
2022-07-31T17:31:58.518Z,21.30
2022-07-31T17:34:26.654Z,21.20
2022-07-31T17:36:54.839Z,21.30
2022-07-31T17:39:26.108Z,21.20
2022-07-31T17:41:56.777Z,21.10
2022-07-31T17:44:24.971Z,21.00
2022-07-31T17:46:53.768Z,21.00
2022-07-31T17:49:23.374Z,20.90
2022-07-31T17:51:59.938Z,20.90
2022-07-31T17:54:30.317Z,21.00
2022-07-31T17:56:58.538Z,21.10
2022-07-31T17:59:26.683Z,21.00
2022-07-31T18:01:59.745Z,21.00
2022-07-31T18:04:30.501Z,21.00
2022-07-31T18:06:59.684Z,21.00
2022-07-31T18:09:28.549Z,21.10
2022-07-31T18:11:57.561Z,21.10
2022-07-31T18:14:25.970Z,21.10
2022-07-31T18:16:54.900Z,21.20
2022-07-31T18:19:23.383Z,21.20
2022-07-31T18:21:53.593Z,21.30
2022-07-31T18:24:22.335Z,21.30
2022-07-31T18:26:51.059Z,21.40
2022-07-31T18:29:19.276Z,21.20
2022-07-31T18:31:48.165Z,21.10
2022-07-31T18:34:16.376Z,21.10
2022-07-31T18:36:44.549Z,21.10
2022-07-31T18:39:14.004Z,21.00
2022-07-31T18:41:46.937Z,20.90
2022-07-31T18:44:16.983Z,20.90
2022-07-31T18:46:45.312Z,20.90
2022-07-31T18:51:01.208Z,20.90
2022-07-31T18:52:02.311Z,20.90
2022-07-31T18:54:32.254Z,21.00
2022-07-31T18:57:00.515Z,21.00
2022-07-31T18:59:28.578Z,21.00
2022-07-31T19:01:56.798Z,21.10
2022-07-31T19:04:25.271Z,21.10
2022-07-31T19:06:54.503Z,21.10
2022-07-31T19:09:24.924Z,21.10
2022-07-31T19:11:58.680Z,21.10
2022-07-31T19:14:31.787Z,21.00
2022-07-31T19:17:00.892Z,21.00
2022-07-31T19:19:37.440Z,21.00
2022-07-31T19:22:17.561Z,21.10
2022-07-31T19:24:45.581Z,21.00
2022-07-31T19:27:15.123Z,21.00
2022-07-31T19:29:43.350Z,21.00
2022-07-31T19:32:12.472Z,21.00
2022-07-31T19:34:41.973Z,21.10
2022-07-31T19:37:16.269Z,21.10
2022-07-31T19:39:44.382Z,21.10
2022-07-31T19:42:12.466Z,21.00
2022-07-31T19:44:42.230Z,21.00
2022-07-31T19:47:10.391Z,21.10
2022-07-31T19:49:41.081Z,21.00
2022-07-31T19:52:09.693Z,21.00
2022-07-31T19:54:37.862Z,21.00
2022-07-31T19:57:06.198Z,21.10
2022-07-31T19:59:34.450Z,21.10
2022-07-31T20:02:04.370Z,21.00
2022-07-31T20:04:32.575Z,21.00
2022-07-31T20:07:01.883Z,21.00
2022-07-31T20:09:31.014Z,21.00
2022-07-31T20:11:59.052Z,21.00
2022-07-31T20:14:27.224Z,21.00
2022-07-31T20:16:55.329Z,21.00
2022-07-31T20:19:24.689Z,21.00
2022-07-31T20:21:53.065Z,21.00
2022-07-31T20:24:21.243Z,21.00
2022-07-31T20:26:49.327Z,20.90
2022-07-31T20:29:17.499Z,20.80
2022-07-31T20:31:45.594Z,20.70
2022-07-31T20:34:13.662Z,20.70
2022-07-31T20:36:43.046Z,20.70
2022-07-31T20:39:11.181Z,20.70
2022-07-31T20:41:39.554Z,20.70
2022-07-31T20:44:07.840Z,20.70
2022-07-31T20:46:36.005Z,20.70
2022-07-31T20:49:04.436Z,20.70
2022-07-31T20:51:32.567Z,20.60
2022-07-31T20:54:02.224Z,20.60
2022-07-31T20:56:30.967Z,20.60
2022-07-31T20:58:59.218Z,20.60
2022-07-31T21:01:27.299Z,20.60
2022-07-31T21:03:55.991Z,20.50
2022-07-31T21:06:24.784Z,20.50
2022-07-31T21:08:52.830Z,20.40
2022-07-31T21:11:22.444Z,20.40
2022-07-31T21:14:00.102Z,20.30
2022-07-31T21:16:28.487Z,20.30
2022-07-31T21:18:56.829Z,20.30
2022-07-31T21:21:25.239Z,20.30
2022-07-31T21:23:53.494Z,20.20
2022-07-31T21:26:24.303Z,20.20
2022-07-31T21:28:52.851Z,20.20
2022-07-31T21:31:21.410Z,20.10
2022-07-31T21:33:49.982Z,20.20
2022-07-31T21:36:20.416Z,20.20
2022-07-31T21:38:49.040Z,20.10
2022-07-31T21:41:17.726Z,20.20
2022-07-31T21:43:58.527Z,20.20
2022-07-31T21:46:29.930Z,20.10
2022-07-31T21:48:58.524Z,20.10
2022-07-31T21:51:27.288Z,20.10
2022-07-31T21:53:55.399Z,20.10
2022-07-31T21:56:23.547Z,20.10
2022-07-31T21:58:52.921Z,20.00
2022-07-31T22:01:21.186Z,20.10
2022-07-31T22:03:49.359Z,20.00
2022-07-31T22:06:35.149Z,20.00
2022-07-31T22:09:03.353Z,20.00
2022-07-31T22:11:31.518Z,20.00
2022-07-31T22:14:00.970Z,20.00
2022-07-31T22:16:29.230Z,20.00
2022-07-31T22:18:58.164Z,20.00
2022-07-31T22:21:26.683Z,20.00
2022-07-31T22:23:55.217Z,20.00
2022-07-31T22:26:23.709Z,20.00
2022-07-31T22:28:53.211Z,20.00
2022-07-31T22:31:23.354Z,20.00
2022-07-31T22:33:51.965Z,20.00
2022-07-31T22:36:20.567Z,20.00
2022-07-31T22:38:49.639Z,20.00
2022-07-31T22:41:17.743Z,20.00
2022-07-31T22:44:11.345Z,20.00
2022-07-31T22:46:36.337Z,20.00
2022-07-31T22:49:05.569Z,20.00
2022-07-31T22:51:38.280Z,20.00
2022-07-31T22:54:06.972Z,20.10
2022-07-31T22:56:34.990Z,20.10
2022-07-31T22:59:03.015Z,20.00
2022-07-31T23:01:31.158Z,20.00
2022-07-31T23:04:00.552Z,20.00
2022-07-31T23:06:31.688Z,20.10
2022-07-31T23:09:01.309Z,20.10
2022-07-31T23:11:29.398Z,20.00
2022-07-31T23:13:57.472Z,20.00
2022-07-31T23:16:25.560Z,20.00
2022-07-31T23:18:53.709Z,20.00
2022-07-31T23:21:23.600Z,20.00
2022-07-31T23:23:52.018Z,20.00
2022-07-31T23:26:20.564Z,20.00
2022-07-31T23:28:48.867Z,20.00
2022-07-31T23:31:17.100Z,20.00
2022-07-31T23:33:45.823Z,20.00
2022-07-31T23:36:14.016Z,20.00
2022-07-31T23:38:44.337Z,20.00
2022-07-31T23:41:12.556Z,20.10
2022-07-31T23:43:39.645Z,20.00
2022-07-31T23:46:08.097Z,20.00
2022-07-31T23:48:36.506Z,20.00
2022-07-31T23:51:07.513Z,20.10
2022-07-31T23:53:35.490Z,20.10
2022-07-31T23:56:05.113Z,20.00
2022-07-31T23:58:46.792Z,20.00
